createdAt,value
2023-03-20T00:01:20.130Z,66.36
2023-03-20T00:03:46.893Z,66.04
2023-03-20T00:06:20.183Z,66.40
2023-03-20T00:08:48.704Z,66.15
2023-03-20T00:11:31.150Z,66.71
2023-03-20T00:14:00.877Z,66.39
2023-03-20T00:16:34.563Z,66.46
2023-03-20T00:19:01.934Z,66.26
2023-03-20T00:21:28.729Z,66.28
2023-03-20T00:23:56.650Z,66.27
2023-03-20T00:26:35.485Z,67.06
2023-03-20T00:29:04.179Z,66.25
2023-03-20T00:31:35.420Z,66.20
2023-03-20T00:34:10.190Z,66.34
2023-03-20T00:36:36.731Z,66.04
2023-03-20T00:39:04.651Z,66.06
2023-03-20T00:41:36.658Z,66.44
2023-03-20T00:44:12.680Z,66.49
2023-03-20T00:46:39.791Z,66.26
2023-03-20T00:49:06.452Z,66.50
2023-03-20T00:51:33.007Z,66.47
2023-03-20T00:53:59.641Z,66.52
2023-03-20T00:56:33.983Z,67.23
2023-03-20T00:59:04.314Z,66.69
2023-03-20T01:01:32.148Z,66.41
2023-03-20T01:03:59.818Z,66.47
2023-03-20T01:06:26.404Z,66.40
2023-03-20T01:08:52.930Z,66.45
2023-03-20T01:11:23.305Z,66.84
2023-03-20T01:13:52.279Z,66.67
2023-03-20T01:16:23.095Z,67.16
2023-03-20T01:18:50.529Z,67.07
2023-03-20T01:21:18.485Z,66.94
2023-03-20T01:23:45.134Z,67.10
2023-03-20T01:26:51.800Z,67.83
2023-03-20T01:29:21.823Z,67.31
2023-03-20T01:31:49.523Z,67.23
2023-03-20T01:34:19.222Z,67.08
2023-03-20T01:36:52.964Z,67.49
2023-03-20T01:39:21.895Z,67.24
2023-03-20T01:41:49.671Z,67.21
2023-03-20T01:44:22.100Z,67.08
2023-03-20T01:46:49.986Z,67.07
2023-03-20T01:49:19.407Z,67.30
2023-03-20T01:51:49.755Z,66.89
2023-03-20T01:54:38.000Z,67.46
2023-03-20T01:57:16.648Z,67.25
2023-03-20T02:00:04.098Z,67.66
2023-03-20T02:02:32.001Z,66.95
2023-03-20T02:05:07.168Z,67.26
2023-03-20T02:07:34.948Z,67.08
2023-03-20T02:10:03.887Z,66.85
2023-03-20T02:12:31.535Z,67.04
2023-03-20T02:14:58.601Z,66.96
2023-03-20T02:17:25.025Z,67.06
2023-03-20T02:20:06.293Z,67.88
2023-03-20T02:22:51.418Z,67.34
2023-03-20T02:25:55.133Z,68.58
2023-03-20T02:28:52.212Z,68.15
2023-03-20T02:31:54.221Z,67.96
2023-03-20T02:34:35.920Z,68.64
2023-03-20T02:37:30.262Z,68.56
2023-03-20T02:40:10.796Z,68.72
2023-03-20T02:42:51.120Z,68.78
2023-03-20T02:45:26.562Z,68.64
2023-03-20T02:48:17.943Z,68.93
2023-03-20T02:50:53.860Z,69.06
2023-03-20T02:53:41.836Z,69.35
2023-03-20T02:56:11.489Z,68.95
2023-03-20T02:58:59.318Z,69.44
2023-03-20T03:01:33.108Z,69.06
2023-03-20T03:04:25.227Z,69.45
2023-03-20T03:06:55.683Z,68.76
2023-03-20T03:09:31.108Z,69.57
2023-03-20T03:12:05.408Z,69.29
2023-03-20T03:14:42.820Z,69.55
2023-03-20T03:17:10.913Z,68.90
2023-03-20T03:19:41.628Z,69.11
2023-03-20T03:22:08.342Z,68.91
2023-03-20T03:24:43.096Z,69.45
2023-03-20T03:27:21.261Z,69.57
2023-03-20T03:29:53.850Z,69.12
2023-03-20T03:32:29.557Z,69.41
2023-03-20T03:34:57.276Z,68.93
2023-03-20T03:37:39.317Z,69.38
2023-03-20T03:40:46.029Z,69.61
2023-03-20T03:43:23.869Z,69.19
2023-03-20T03:45:57.861Z,69.31
2023-03-20T03:48:30.564Z,69.06
2023-03-20T03:51:02.494Z,68.66
2023-03-20T03:53:36.462Z,68.83
2023-03-20T03:56:07.875Z,68.48
2023-03-20T03:58:42.873Z,68.60
2023-03-20T04:01:14.308Z,68.23
2023-03-20T04:04:06.126Z,68.14
2023-03-20T04:06:33.376Z,67.69
2023-03-20T04:08:59.687Z,67.55
2023-03-20T04:11:29.023Z,67.60
2023-03-20T04:13:55.797Z,67.37
2023-03-20T04:16:24.358Z,67.44
2023-03-20T04:18:51.546Z,67.29
2023-03-20T04:21:18.660Z,67.16
2023-03-20T04:23:45.342Z,67.11
2023-03-20T04:26:11.946Z,66.98
2023-03-20T04:28:38.301Z,66.98
2023-03-20T04:31:04.786Z,66.94
2023-03-20T04:33:31.114Z,66.78
2023-03-20T04:35:57.478Z,66.78
2023-03-20T04:38:24.404Z,66.78
2023-03-20T04:40:51.027Z,66.84
2023-03-20T04:43:17.646Z,66.69
2023-03-20T04:45:44.131Z,66.63
2023-03-20T04:48:10.862Z,66.71
2023-03-20T04:50:37.290Z,66.63
2023-03-20T04:53:03.788Z,66.57
2023-03-20T04:55:30.216Z,66.43
2023-03-20T04:57:56.555Z,66.47
2023-03-20T05:00:23.211Z,66.47
2023-03-20T05:02:49.539Z,66.49
2023-03-20T05:05:15.878Z,66.56
2023-03-20T05:07:42.184Z,66.67
2023-03-20T05:10:09.250Z,66.61
2023-03-20T05:12:35.754Z,66.60
2023-03-20T05:15:02.161Z,66.82
2023-03-20T05:17:28.477Z,66.82
2023-03-20T05:19:54.801Z,66.92
2023-03-20T05:22:21.135Z,66.98
2023-03-20T05:24:47.517Z,66.93
2023-03-20T05:27:13.893Z,67.15
2023-03-20T05:29:40.295Z,67.26
2023-03-20T05:32:06.745Z,67.17
2023-03-20T05:34:33.093Z,67.23
2023-03-20T05:36:59.510Z,67.26
2023-03-20T05:39:26.021Z,67.28
2023-03-20T05:41:52.372Z,67.46
2023-03-20T05:44:18.711Z,67.52
2023-03-20T05:46:45.177Z,67.52
2023-03-20T05:49:11.531Z,67.67
2023-03-20T05:51:38.095Z,67.63
2023-03-20T05:54:04.894Z,67.77
2023-03-20T05:56:31.435Z,68.10
2023-03-20T05:58:57.764Z,67.90
2023-03-20T06:01:24.153Z,68.30
2023-03-20T06:03:50.840Z,68.17
2023-03-20T06:06:17.797Z,68.42
2023-03-20T06:08:44.306Z,68.12
2023-03-20T06:11:12.011Z,68.19
2023-03-20T06:13:38.384Z,68.07
2023-03-20T06:16:05.167Z,68.02
2023-03-20T06:18:31.571Z,68.33
2023-03-20T06:20:58.096Z,68.24
2023-03-20T06:23:24.474Z,68.24
2023-03-20T06:25:51.235Z,68.29
2023-03-20T06:28:17.640Z,68.32
2023-03-20T06:30:44.482Z,68.25
2023-03-20T06:33:10.912Z,68.43
2023-03-20T06:35:37.536Z,68.13
2023-03-20T06:38:04.065Z,68.32
2023-03-20T06:40:30.530Z,68.31
2023-03-20T06:42:56.999Z,68.23
2023-03-20T06:45:25.963Z,68.16
2023-03-20T06:47:52.411Z,68.16
2023-03-20T06:50:18.860Z,68.06
2023-03-20T06:52:45.249Z,68.13
2023-03-20T06:55:11.799Z,68.40
2023-03-20T06:57:38.541Z,68.23
2023-03-20T07:00:06.290Z,68.38
2023-03-20T07:02:33.268Z,68.21
2023-03-20T07:04:59.645Z,68.26
2023-03-20T07:07:25.993Z,68.29
2023-03-20T07:09:52.316Z,67.93
2023-03-20T07:12:22.872Z,67.53
2023-03-20T07:14:49.850Z,67.44
2023-03-20T07:17:16.596Z,67.38
2023-03-20T07:19:42.933Z,66.96
2023-03-20T07:22:18.404Z,67.11
2023-03-20T07:24:47.197Z,66.70
2023-03-20T07:27:13.745Z,66.78
2023-03-20T07:29:40.067Z,66.41
2023-03-20T07:32:06.479Z,66.50
2023-03-20T07:34:32.799Z,66.35
2023-03-20T07:36:59.301Z,66.08
2023-03-20T07:39:25.816Z,66.22
2023-03-20T07:41:52.285Z,65.82
2023-03-20T07:44:19.405Z,65.77
2023-03-20T07:46:49.113Z,65.74
2023-03-20T07:49:18.350Z,65.45
2023-03-20T07:51:49.137Z,65.12
2023-03-20T07:54:16.126Z,64.86
2023-03-20T07:56:45.269Z,64.60
2023-03-20T07:59:12.720Z,64.49
2023-03-20T08:01:44.238Z,64.27
2023-03-20T08:08:02.314Z,64.48
2023-03-20T08:10:29.021Z,64.53
2023-03-20T08:12:56.187Z,64.52
2023-03-20T08:15:22.722Z,64.61
2023-03-20T08:17:49.720Z,64.07
2023-03-20T08:20:17.383Z,63.91
2023-03-20T08:22:47.131Z,63.73
2023-03-20T08:25:13.643Z,64.01
2023-03-20T08:27:40.176Z,63.87
2023-03-20T08:30:07.477Z,64.13
2023-03-20T08:32:34.049Z,63.96
2023-03-20T08:35:00.739Z,63.59
2023-03-20T08:37:27.794Z,63.35
2023-03-20T08:39:57.079Z,63.18
2023-03-20T08:42:23.637Z,63.39
2023-03-20T08:44:50.568Z,63.12
2023-03-20T08:47:17.180Z,62.90
2023-03-20T08:49:43.756Z,63.01
2023-03-20T08:52:10.331Z,62.88
2023-03-20T08:54:36.879Z,62.71
2023-03-20T08:57:03.460Z,62.58
2023-03-20T08:59:29.932Z,62.38
2023-03-20T09:01:56.438Z,62.68
2023-03-20T09:04:23.046Z,62.41
2023-03-20T09:06:50.520Z,61.13
2023-03-20T09:09:19.883Z,60.57
2023-03-20T09:11:46.488Z,60.00
2023-03-20T09:14:13.078Z,60.36
2023-03-20T09:16:39.642Z,60.00
2023-03-20T09:19:06.560Z,60.03
2023-03-20T09:21:33.018Z,60.27
2023-03-20T09:23:59.542Z,59.59
2023-03-20T09:26:25.941Z,59.50
2023-03-20T09:28:52.403Z,59.11
2023-03-20T09:31:18.906Z,58.92
2023-03-20T09:33:45.657Z,58.66
2023-03-20T09:36:12.348Z,58.08
2023-03-20T09:38:41.845Z,58.53
2023-03-20T09:41:18.685Z,56.15
2023-03-20T09:43:45.427Z,58.37
2023-03-20T09:46:38.718Z,57.95
2023-03-20T09:49:23.364Z,55.90
2023-03-20T09:52:08.071Z,56.52
2023-03-20T09:54:53.619Z,57.58
2023-03-20T09:57:35.283Z,57.72
2023-03-20T10:00:07.875Z,57.87
2023-03-20T10:02:50.079Z,57.08
2023-03-20T10:05:31.709Z,55.77
2023-03-20T10:08:01.910Z,56.61
2023-03-20T10:11:16.260Z,55.86
2023-03-20T10:13:58.532Z,56.17
2023-03-20T10:16:53.203Z,55.66
2023-03-20T10:19:29.839Z,55.15
2023-03-20T10:22:02.788Z,55.06
2023-03-20T10:24:44.377Z,55.69
2023-03-20T10:27:34.139Z,54.30
2023-03-20T10:30:25.937Z,53.84
2023-03-20T10:33:26.756Z,50.40
2023-03-20T10:36:22.459Z,52.59
2023-03-20T10:39:12.707Z,53.11
2023-03-20T10:41:43.163Z,55.31
2023-03-20T10:44:17.069Z,53.87
2023-03-20T10:46:51.610Z,54.08
2023-03-20T10:49:36.468Z,54.43
2023-03-20T10:52:09.696Z,53.75
2023-03-20T10:54:43.565Z,53.60
2023-03-20T10:57:24.882Z,54.26
2023-03-20T10:59:52.480Z,54.29
2023-03-20T11:02:23.235Z,53.27
2023-03-20T11:04:50.446Z,53.77
2023-03-20T11:07:32.704Z,52.88
2023-03-20T11:10:05.073Z,53.03
2023-03-20T11:12:37.644Z,52.71
2023-03-20T11:15:19.309Z,52.04
2023-03-20T11:17:57.847Z,52.15
2023-03-20T11:20:26.738Z,53.26
2023-03-20T11:23:18.118Z,51.23
2023-03-20T11:26:04.057Z,51.75
2023-03-20T11:28:42.364Z,53.10
2023-03-20T11:31:19.803Z,53.43
2023-03-20T11:33:52.628Z,53.13
2023-03-20T11:36:25.326Z,54.49
2023-03-20T11:38:58.561Z,54.36
2023-03-20T11:41:28.129Z,53.75
2023-03-20T11:43:55.260Z,53.66
2023-03-20T11:46:24.416Z,53.75
2023-03-20T11:49:17.346Z,52.83
2023-03-20T11:51:43.957Z,54.19
2023-03-20T11:54:17.572Z,52.67
2023-03-20T11:57:00.728Z,53.04
2023-03-20T11:59:34.074Z,53.23
2023-03-20T12:02:03.025Z,53.67
2023-03-20T12:04:37.749Z,52.09
2023-03-20T12:07:13.126Z,52.52
2023-03-20T12:09:48.605Z,53.48
2023-03-20T12:12:36.928Z,52.08
2023-03-20T12:15:12.732Z,52.66
2023-03-20T12:18:03.348Z,52.26
2023-03-20T12:21:04.052Z,52.06
2023-03-20T12:23:39.865Z,52.66
2023-03-20T12:26:15.536Z,52.68
2023-03-20T12:28:52.123Z,53.67
2023-03-20T12:31:24.866Z,53.69
2023-03-20T12:33:51.425Z,54.63
2023-03-20T12:36:27.670Z,54.03
2023-03-20T12:38:54.144Z,54.49
2023-03-20T12:41:48.929Z,53.52
2023-03-20T12:44:21.940Z,54.41
2023-03-20T12:46:48.577Z,51.01
2023-03-20T12:49:37.918Z,51.92
2023-03-20T12:52:44.881Z,52.53
2023-03-20T12:55:25.761Z,53.21
2023-03-20T12:58:07.166Z,53.48
2023-03-20T13:00:49.644Z,54.51
2023-03-20T13:03:34.254Z,53.58
2023-03-20T13:06:36.682Z,53.38
2023-03-20T13:09:23.049Z,53.31
2023-03-20T13:12:08.755Z,53.48
2023-03-20T13:14:44.369Z,53.87
2023-03-20T13:17:33.748Z,53.26
2023-03-20T13:20:06.468Z,54.65
2023-03-20T13:22:48.599Z,54.63
2023-03-20T13:25:32.198Z,54.78
2023-03-20T13:28:04.437Z,54.65
2023-03-20T13:30:44.802Z,54.59
2023-03-20T13:33:45.134Z,54.36
2023-03-20T13:39:22.187Z,55.11
2023-03-20T13:41:49.492Z,55.72
2023-03-20T13:44:20.884Z,55.77
2023-03-20T13:46:55.254Z,54.73
2023-03-20T13:49:48.078Z,55.02
2023-03-20T13:52:19.212Z,55.97
2023-03-20T13:54:53.608Z,54.66
2023-03-20T13:58:20.340Z,54.60
2023-03-20T14:00:56.131Z,54.96
2023-03-20T14:03:30.836Z,54.79
2023-03-20T14:05:57.427Z,55.33
2023-03-20T14:08:26.776Z,55.28
2023-03-20T14:11:07.735Z,54.73
2023-03-20T14:13:35.383Z,55.13
2023-03-20T14:16:07.441Z,55.14
2023-03-20T14:18:34.040Z,55.61
2023-03-20T14:21:02.401Z,55.71
2023-03-20T14:23:34.950Z,54.85
2023-03-20T14:26:05.933Z,55.20
2023-03-20T14:28:44.545Z,54.99
2023-03-20T14:31:23.097Z,55.91
2023-03-20T14:34:12.485Z,56.08
2023-03-20T14:36:59.577Z,55.80
2023-03-20T14:39:41.264Z,55.76
2023-03-20T14:42:35.325Z,55.03
2023-03-20T14:45:14.023Z,55.16
2023-03-20T14:48:01.815Z,55.90
2023-03-20T14:50:46.477Z,55.89
2023-03-20T14:53:19.329Z,56.39
2023-03-20T14:56:05.575Z,56.52
2023-03-20T14:58:37.791Z,56.92
2023-03-20T15:01:06.628Z,57.13
2023-03-20T15:03:33.496Z,57.28
2023-03-20T15:06:04.520Z,57.28
2023-03-20T15:08:37.346Z,57.32
2023-03-20T15:11:08.758Z,58.17
2023-03-20T15:13:37.566Z,57.56
2023-03-20T15:16:06.978Z,57.93
2023-03-20T15:18:39.133Z,58.02
2023-03-20T15:21:13.289Z,58.22
2023-03-20T15:23:42.583Z,58.14
2023-03-20T15:26:09.098Z,58.39
2023-03-20T15:28:37.951Z,58.47
2023-03-20T15:31:06.358Z,58.92
2023-03-20T15:33:36.558Z,59.09
2023-03-20T15:36:15.998Z,59.42
2023-03-20T15:38:44.223Z,59.47
2023-03-20T15:41:31.993Z,60.04
2023-03-20T15:44:20.628Z,59.85
2023-03-20T15:47:03.360Z,60.25
2023-03-20T15:49:32.406Z,59.87
2023-03-20T15:52:03.038Z,59.68
2023-03-20T15:54:29.583Z,59.84
2023-03-20T15:57:00.646Z,59.80
2023-03-20T15:59:31.396Z,60.08
2023-03-20T16:01:59.459Z,59.88
2023-03-20T16:04:26.959Z,60.08
2023-03-20T16:06:56.220Z,60.41
2023-03-20T16:09:23.384Z,60.23
2023-03-20T16:11:59.651Z,60.49
2023-03-20T16:14:33.498Z,60.62
2023-03-20T16:17:02.820Z,60.32
2023-03-20T16:19:29.747Z,60.55
2023-03-20T16:21:59.552Z,60.46
2023-03-20T16:24:31.230Z,60.51
2023-03-20T16:26:58.400Z,60.62
2023-03-20T16:29:28.122Z,61.28
2023-03-20T16:32:03.854Z,61.49
2023-03-20T16:34:38.611Z,61.62
2023-03-20T16:37:32.576Z,62.13
2023-03-20T16:40:18.088Z,62.31
2023-03-20T16:42:45.553Z,61.61
2023-03-20T16:45:22.068Z,62.51
2023-03-20T16:47:49.549Z,61.95
2023-03-20T16:50:19.109Z,62.19
2023-03-20T16:53:14.168Z,63.29
2023-03-20T16:55:51.291Z,63.48
2023-03-20T16:58:21.961Z,63.22
2023-03-20T17:00:57.511Z,63.36
2023-03-20T17:03:30.399Z,63.81
2023-03-20T17:05:59.673Z,63.75
2023-03-20T17:08:40.059Z,64.19
2023-03-20T17:11:12.962Z,64.24
2023-03-20T17:13:41.181Z,63.95
2023-03-20T17:16:13.689Z,64.49
2023-03-20T17:18:40.496Z,63.94
2023-03-20T17:21:07.096Z,64.08
2023-03-20T17:23:33.444Z,64.45
2023-03-20T17:25:59.787Z,64.57
2023-03-20T17:28:33.797Z,65.86
2023-03-20T17:31:05.007Z,64.98
2023-03-20T17:33:33.205Z,65.07
2023-03-20T17:36:00.797Z,64.87
2023-03-20T17:38:27.614Z,64.75
2023-03-20T17:40:54.060Z,64.77
2023-03-20T17:43:20.881Z,64.80
2023-03-20T17:45:47.772Z,64.78
2023-03-20T17:48:17.992Z,65.29
2023-03-20T17:50:45.798Z,65.13
2023-03-20T17:53:28.747Z,65.37
2023-03-20T17:55:55.242Z,64.98
2023-03-20T17:58:23.309Z,65.28
2023-03-20T18:00:54.748Z,65.79
2023-03-20T18:03:21.652Z,65.30
2023-03-20T18:05:50.535Z,65.46
2023-03-20T18:08:21.318Z,65.72
2023-03-20T18:10:49.665Z,65.67
2023-03-20T18:13:20.751Z,65.54
2023-03-20T18:15:51.523Z,65.66
2023-03-20T18:18:23.719Z,66.10
2023-03-20T18:20:52.269Z,65.74
2023-03-20T18:23:18.739Z,65.80
2023-03-20T18:25:45.188Z,65.90
2023-03-20T18:28:18.379Z,66.26
2023-03-20T18:30:45.985Z,66.23
2023-03-20T18:33:12.426Z,66.25
2023-03-20T18:35:38.874Z,66.33
2023-03-20T18:38:05.578Z,66.52
2023-03-20T18:40:34.474Z,66.74
2023-03-20T18:43:01.386Z,66.67
2023-03-20T18:45:29.658Z,66.88
2023-03-20T18:47:57.329Z,67.19
2023-03-20T18:50:35.057Z,67.69
2023-03-20T18:53:04.535Z,67.16
2023-03-20T18:55:31.654Z,66.98
2023-03-20T18:57:58.981Z,66.95
2023-03-20T19:00:39.829Z,68.24
2023-03-20T19:03:07.953Z,67.25
2023-03-20T19:05:34.369Z,67.29
2023-03-20T19:08:01.050Z,67.13
2023-03-20T19:10:39.309Z,68.07
2023-03-20T19:13:07.538Z,67.50
2023-03-20T19:15:37.140Z,67.27
2023-03-20T19:18:24.684Z,67.13
2023-03-20T19:20:53.200Z,67.20
2023-03-20T19:23:20.548Z,67.47
2023-03-20T19:25:49.363Z,67.76
2023-03-20T19:28:39.324Z,68.36
2023-03-20T19:31:06.873Z,67.54
2023-03-20T19:33:33.872Z,67.54
2023-03-20T19:36:03.687Z,67.54
2023-03-20T19:38:31.559Z,67.57
2023-03-20T19:40:59.279Z,67.80
2023-03-20T19:43:25.864Z,67.68
2023-03-20T19:45:57.999Z,67.91
2023-03-20T19:48:43.333Z,68.22
2023-03-20T19:51:19.948Z,68.01
2023-03-20T19:53:47.077Z,67.94
2023-03-20T19:56:15.478Z,68.09
2023-03-20T19:58:43.318Z,67.96
2023-03-20T20:01:16.019Z,68.63
2023-03-20T20:03:46.257Z,68.57
2023-03-20T20:06:13.066Z,68.08
2023-03-20T20:08:49.047Z,68.05
2023-03-20T20:11:20.590Z,68.83
2023-03-20T20:14:05.169Z,68.00
2023-03-20T20:16:35.393Z,68.16
2023-03-20T20:19:02.378Z,68.29
2023-03-20T20:24:16.365Z,68.06
2023-03-20T20:26:53.394Z,68.39
2023-03-20T20:29:21.715Z,68.24
2023-03-20T20:31:48.434Z,68.45
2023-03-20T20:39:49.834Z,68.95
2023-03-20T20:42:20.505Z,68.87
2023-03-20T20:44:47.552Z,69.01
2023-03-20T20:47:14.731Z,69.30
2023-03-20T20:49:41.495Z,69.26
2023-03-20T20:52:08.842Z,69.39
2023-03-20T20:54:35.330Z,69.70
2023-03-20T20:57:02.107Z,70.08
2023-03-20T20:59:29.451Z,70.22
2023-03-20T21:01:56.441Z,70.40
2023-03-20T21:04:23.508Z,70.62
2023-03-20T21:07:08.652Z,70.71
2023-03-20T21:09:36.678Z,71.19
2023-03-20T21:12:04.135Z,71.13
2023-03-20T21:14:30.824Z,71.17
2023-03-20T21:17:00.964Z,71.60
2023-03-20T21:19:35.405Z,72.05
2023-03-20T21:22:01.929Z,71.67
2023-03-20T21:24:33.638Z,71.74
2023-03-20T21:27:05.397Z,71.92
2023-03-20T21:29:31.958Z,71.88
2023-03-20T21:31:58.609Z,72.06
2023-03-20T21:34:26.098Z,72.08
2023-03-20T21:36:52.724Z,72.28
2023-03-20T21:39:19.398Z,72.30
2023-03-20T21:41:46.128Z,72.27
2023-03-20T21:44:17.417Z,72.45
2023-03-20T21:47:38.087Z,72.32
2023-03-20T21:50:30.836Z,72.31
2023-03-20T21:53:14.765Z,72.46
2023-03-20T21:56:08.983Z,72.38
2023-03-20T22:04:37.563Z,72.33
2023-03-20T22:12:30.257Z,72.21
2023-03-20T22:15:20.083Z,72.21
2023-03-20T22:17:55.897Z,72.36
2023-03-20T22:23:42.671Z,72.32
2023-03-20T22:26:36.394Z,72.15
2023-03-20T22:45:11.624Z,72.10
2023-03-20T22:47:38.397Z,72.11
2023-03-20T22:50:06.233Z,72.15
2023-03-20T22:52:48.128Z,72.10
2023-03-20T22:55:16.781Z,72.25
2023-03-20T22:57:52.888Z,72.39
2023-03-20T23:00:29.989Z,72.21
2023-03-20T23:03:06.665Z,72.30
2023-03-20T23:05:41.092Z,72.34
2023-03-20T23:08:08.999Z,72.32
2023-03-20T23:10:38.049Z,72.41
2023-03-20T23:13:04.733Z,72.48
2023-03-20T23:15:31.703Z,72.39
2023-03-20T23:17:58.760Z,72.47
2023-03-20T23:20:25.634Z,72.37
2023-03-20T23:22:52.152Z,72.38
2023-03-20T23:25:36.057Z,72.32
2023-03-20T23:28:04.916Z,72.45
2023-03-20T23:30:41.959Z,72.28
2023-03-20T23:33:10.847Z,72.23
2023-03-20T23:35:37.486Z,72.21
2023-03-20T23:38:03.996Z,72.12
2023-03-20T23:40:31.057Z,72.10
2023-03-20T23:42:57.629Z,72.13
2023-03-20T23:45:24.357Z,72.17
2023-03-20T23:47:51.060Z,72.16
2023-03-20T23:53:19.461Z,72.36
2023-03-20T23:55:48.326Z,71.87
2023-03-20T23:58:15.720Z,71.89
